Impacts METAR Board
IDs:

KSLC - Salt Lake City Intl, UT, US

Updated at: 1300 UTC 27 Feb 2021
Potential Impact None Slight Moderate High
Time 27/01Z 27/02Z 27/03Z 27/04Z 27/05Z 27/06Z 27/07Z 27/08Z 27/09Z 27/10Z 27/11Z 27/12Z 27/13Z
Temp39 39 38 30 30 30 30 31 31 30 29 29 28
Dewpt17 18 19 25 26 22 21 17 14 12 11 12 13
Altim29.78 29.77 29.76 29.82 29.84 29.86 29.87 29.87 29.87 29.86 29.86 29.87 29.87
VIS10 10 10 8 9 9 9 10 10 10 10 10 10
CIG70 75 50 42 27 36 35 50 65 65 -- 80 80
CoverOVCOVCOVCOVCOVCBKNBKNOVCOVCOVCSCTBKNBKN
FltCatVFRVFRVFRVFRMVFRVFRVFRVFRVFRVFRVFRVFRVFR
WX-----------SN--------------
WDir34019026036030300300310280270280270260
WSpd9 14 3 12 5 7 12 8 10 12 11 12 6
WGst-- 18 -- -- -- -- -- -- -- -- 19 -- --
Raw hourly METARs
KSLC 270054Z 34009KT 10SM FEW045 BKN070 OVC090 04/M08 A2978 RMK AO2 SLP084 VIRGA BINOVC T00391083 $
KSLC 270154Z 19014G18KT 10SM SCT055 BKN075 OVC090 04/M08 A2977 RMK AO2 SLP081 VIRGA T00391078 $
KSLC 270254Z 26003KT 10SM BKN050 BKN070 OVC095 03/M07 A2976 RMK AO2 SLP072 T00331072 56011 $
KSLC 270354Z 36012KT 8SM SCT032 BKN042 OVC055 M01/M04 A2982 RMK AO2 PK WND 31033/0312 WSHFT 0257 SNB06E22 SLP106 P0000 T10111039 $
KSLC 270454Z 03005KT 9SM FEW011 BKN027 OVC034 M01/M03 A2984 RMK AO2 SNB23E51 SLP113 P0000 T10111033 $
KSLC 270601Z 30007KT 9SM -SN SCT027 BKN036 BKN047 M01/M06 A2986 RMK AO2 SNB0557 CIG 028 NW RNWY P0000 T10111056 $
KSLC 270654Z 30012KT 9SM BKN035 BKN048 BKN080 M01/M06 A2987 RMK AO2 SNB0557E04B23E51 SLP119 P0001 T10111061 400671017 $
KSLC 270754Z 31008KT 10SM FEW035 BKN050 OVC070 M01/M08 A2987 RMK AO2 SLP110 P0000 T10061083 $
KSLC 270854Z 28010KT 10SM FEW035 OVC065 M01/M10 A2987 RMK AO2 SLP116 60001 T10061100 50003 $
KSLC 270954Z 27012KT 10SM FEW035 BKN065 OVC080 M01/M11 A2986 RMK AO2 SLP111 T10111111 $
KSLC 271054Z 28011G19KT 10SM FEW065 SCT080 M02/M12 A2986 RMK AO2 SLP105 T10171117 $
KSLC 271154Z 27012KT 10SM FEW050 BKN080 M02/M11 A2987 RMK AO2 SLP118 60001 70001 T10171111 11006 21022 55001 $
KSLC 271254Z 26006KT 10SM SCT050 BKN080 M02/M11 A2987 RMK AO2 SLP122 T10221106 $



Page loaded:  13:10 UTC  |   05:10 AM Pacific  |   06:10 AM Mountain  |   07:10 AM Central  |   08:10 AM Eastern

 

ADVISORIES

FORECASTS

FORECASTS

OBSERVATIONS

USER TOOLS

ABOUT US